sensor_id;sensor_type;location;lat;lon;timestamp;P1;durP1;ratioP1;P2;durP2;ratioP2
12848;SDS011;6493;50.928;7.172;2023-04-25T00:00:22;0.77;;;0.63;;
12848;SDS011;6493;50.928;7.172;2023-04-25T00:05:26;0.50;;;0.50;;
12848;SDS011;6493;50.928;7.172;2023-04-25T00:10:31;1.13;;;0.70;;
12848;SDS011;6493;50.928;7.172;2023-04-25T00:15:35;1.27;;;0.67;;
12848;SDS011;6493;50.928;7.172;2023-04-25T00:20:39;1.10;;;0.63;;
12848;SDS011;6493;50.928;7.172;2023-04-25T00:25:46;2.13;;;0.90;;
12848;SDS011;6493;50.928;7.172;2023-04-25T00:30:51;1.17;;;0.60;;
12848;SDS011;6493;50.928;7.172;2023-04-25T00:35:55;3.17;;;1.00;;
12848;SDS011;6493;50.928;7.172;2023-04-25T00:40:58;1.63;;;0.60;;
12848;SDS011;6493;50.928;7.172;2023-04-25T00:46:02;0.77;;;0.63;;
12848;SDS011;6493;50.928;7.172;2023-04-25T00:51:06;1.50;;;0.80;;
12848;SDS011;6493;50.928;7.172;2023-04-25T00:56:09;0.83;;;0.70;;
12848;SDS011;6493;50.928;7.172;2023-04-25T01:01:14;1.50;;;0.90;;
12848;SDS011;6493;50.928;7.172;2023-04-25T01:06:17;1.53;;;1.00;;
12848;SDS011;6493;50.928;7.172;2023-04-25T01:11:21;1.83;;;0.90;;
12848;SDS011;6493;50.928;7.172;2023-04-25T01:16:25;1.90;;;0.97;;
12848;SDS011;6493;50.928;7.172;2023-04-25T01:21:30;1.03;;;0.77;;
12848;SDS011;6493;50.928;7.172;2023-04-25T01:26:33;2.77;;;0.83;;
12848;SDS011;6493;50.928;7.172;2023-04-25T01:31:37;1.87;;;0.90;;
12848;SDS011;6493;50.928;7.172;2023-04-25T01:36:42;1.60;;;0.70;;
12848;SDS011;6493;50.928;7.172;2023-04-25T01:41:46;1.77;;;0.80;;
12848;SDS011;6493;50.928;7.172;2023-04-25T01:46:49;2.37;;;0.93;;
12848;SDS011;6493;50.928;7.172;2023-04-25T01:51:54;2.20;;;1.00;;
12848;SDS011;6493;50.928;7.172;2023-04-25T01:56:58;2.43;;;1.07;;
12848;SDS011;6493;50.928;7.172;2023-04-25T02:02:02;1.50;;;0.90;;
12848;SDS011;6493;50.928;7.172;2023-04-25T02:07:08;1.60;;;0.93;;
12848;SDS011;6493;50.928;7.172;2023-04-25T02:12:20;1.53;;;0.90;;
12848;SDS011;6493;50.928;7.172;2023-04-25T02:17:36;2.13;;;0.87;;
12848;SDS011;6493;50.928;7.172;2023-04-25T02:22:41;0.93;;;0.70;;
12848;SDS011;6493;50.928;7.172;2023-04-25T02:27:45;2.97;;;0.87;;
12848;SDS011;6493;50.928;7.172;2023-04-25T02:32:48;2.13;;;0.50;;
12848;SDS011;6493;50.928;7.172;2023-04-25T02:37:53;0.80;;;0.50;;
12848;SDS011;6493;50.928;7.172;2023-04-25T02:42:56;1.10;;;0.53;;
12848;SDS011;6493;50.928;7.172;2023-04-25T02:48:00;1.13;;;0.43;;
12848;SDS011;6493;50.928;7.172;2023-04-25T02:53:07;0.87;;;0.50;;
12848;SDS011;6493;50.928;7.172;2023-04-25T02:58:18;0.70;;;0.50;;
12848;SDS011;6493;50.928;7.172;2023-04-25T03:03:24;0.87;;;0.60;;
12848;SDS011;6493;50.928;7.172;2023-04-25T03:08:30;1.47;;;0.70;;
12848;SDS011;6493;50.928;7.172;2023-04-25T03:13:36;0.53;;;0.53;;
12848;SDS011;6493;50.928;7.172;2023-04-25T03:18:40;1.10;;;0.60;;
12848;SDS011;6493;50.928;7.172;2023-04-25T03:23:44;1.03;;;0.73;;
12848;SDS011;6493;50.928;7.172;2023-04-25T03:28:47;1.73;;;0.90;;
12848;SDS011;6493;50.928;7.172;2023-04-25T03:33:51;1.10;;;0.80;;
12848;SDS011;6493;50.928;7.172;2023-04-25T03:38:57;1.53;;;0.90;;
12848;SDS011;6493;50.928;7.172;2023-04-25T03:44:04;0.90;;;0.50;;
12848;SDS011;6493;50.928;7.172;2023-04-25T03:49:07;1.00;;;0.50;;
12848;SDS011;6493;50.928;7.172;2023-04-25T03:54:37;0.50;;;0.50;;
12848;SDS011;6493;50.928;7.172;2023-04-25T03:59:44;2.10;;;0.70;;
12848;SDS011;6493;50.928;7.172;2023-04-25T04:04:49;0.73;;;0.60;;
12848;SDS011;6493;50.928;7.172;2023-04-25T04:09:55;0.67;;;0.57;;
12848;SDS011;6493;50.928;7.172;2023-04-25T04:15:04;1.70;;;0.60;;
12848;SDS011;6493;50.928;7.172;2023-04-25T04:20:09;0.50;;;0.50;;
12848;SDS011;6493;50.928;7.172;2023-04-25T04:25:15;1.33;;;0.50;;
12848;SDS011;6493;50.928;7.172;2023-04-25T04:30:37;0.73;;;0.50;;
12848;SDS011;6493;50.928;7.172;2023-04-25T04:35:42;0.70;;;0.70;;
12848;SDS011;6493;50.928;7.172;2023-04-25T04:40:48;1.80;;;0.80;;
12848;SDS011;6493;50.928;7.172;2023-04-25T04:46:04;1.57;;;0.67;;
12848;SDS011;6493;50.928;7.172;2023-04-25T04:51:17;1.57;;;0.60;;
12848;SDS011;6493;50.928;7.172;2023-04-25T04:56:21;0.90;;;0.50;;
12848;SDS011;6493;50.928;7.172;2023-04-25T05:01:48;0.90;;;0.67;;
12848;SDS011;6493;50.928;7.172;2023-04-25T05:07:14;0.80;;;0.67;;
12848;SDS011;6493;50.928;7.172;2023-04-25T05:12:25;0.63;;;0.53;;
12848;SDS011;6493;50.928;7.172;2023-04-25T05:17:55;1.23;;;0.60;;
12848;SDS011;6493;50.928;7.172;2023-04-25T05:22:58;1.30;;;1.00;;
12848;SDS011;6493;50.928;7.172;2023-04-25T05:28:16;0.70;;;0.50;;
12848;SDS011;6493;50.928;7.172;2023-04-25T05:33:37;2.20;;;0.70;;
12848;SDS011;6493;50.928;7.172;2023-04-25T05:38:41;1.70;;;0.80;;
12848;SDS011;6493;50.928;7.172;2023-04-25T05:43:55;1.97;;;0.77;;
12848;SDS011;6493;50.928;7.172;2023-04-25T05:49:20;1.67;;;0.87;;
12848;SDS011;6493;50.928;7.172;2023-04-25T05:54:38;2.83;;;0.90;;
12848;SDS011;6493;50.928;7.172;2023-04-25T05:59:43;2.40;;;0.97;;
12848;SDS011;6493;50.928;7.172;2023-04-25T06:04:48;2.17;;;0.90;;
12848;SDS011;6493;50.928;7.172;2023-04-25T06:09:53;2.10;;;0.80;;
12848;SDS011;6493;50.928;7.172;2023-04-25T06:14:57;2.27;;;1.07;;
12848;SDS011;6493;50.928;7.172;2023-04-25T06:20:00;2.30;;;0.80;;
12848;SDS011;6493;50.928;7.172;2023-04-25T06:25:07;2.30;;;1.07;;
12848;SDS011;6493;50.928;7.172;2023-04-25T06:30:13;1.60;;;0.90;;
12848;SDS011;6493;50.928;7.172;2023-04-25T06:35:16;1.83;;;0.80;;
12848;SDS011;6493;50.928;7.172;2023-04-25T06:40:20;3.37;;;0.83;;
12848;SDS011;6493;50.928;7.172;2023-04-25T06:45:24;1.63;;;0.80;;
12848;SDS011;6493;50.928;7.172;2023-04-25T06:50:28;2.60;;;0.90;;
12848;SDS011;6493;50.928;7.172;2023-04-25T06:55:31;3.73;;;1.03;;
12848;SDS011;6493;50.928;7.172;2023-04-25T07:00:47;2.80;;;0.97;;
12848;SDS011;6493;50.928;7.172;2023-04-25T07:05:51;2.20;;;0.83;;
12848;SDS011;6493;50.928;7.172;2023-04-25T07:10:55;1.97;;;0.77;;
12848;SDS011;6493;50.928;7.172;2023-04-25T07:16:00;3.23;;;1.40;;
12848;SDS011;6493;50.928;7.172;2023-04-25T07:21:05;3.10;;;1.00;;
12848;SDS011;6493;50.928;7.172;2023-04-25T07:26:10;1.77;;;1.00;;
12848;SDS011;6493;50.928;7.172;2023-04-25T07:31:32;2.03;;;0.70;;
12848;SDS011;6493;50.928;7.172;2023-04-25T07:36:36;1.97;;;0.97;;
12848;SDS011;6493;50.928;7.172;2023-04-25T07:41:39;2.50;;;0.93;;
12848;SDS011;6493;50.928;7.172;2023-04-25T07:46:49;1.83;;;0.80;;
12848;SDS011;6493;50.928;7.172;2023-04-25T07:51:53;2.60;;;0.90;;
12848;SDS011;6493;50.928;7.172;2023-04-25T07:56:57;1.10;;;0.83;;
12848;SDS011;6493;50.928;7.172;2023-04-25T08:02:05;1.73;;;0.90;;
12848;SDS011;6493;50.928;7.172;2023-04-25T08:07:08;0.97;;;0.60;;
12848;SDS011;6493;50.928;7.172;2023-04-25T08:12:35;1.87;;;0.93;;
12848;SDS011;6493;50.928;7.172;2023-04-25T08:17:40;1.63;;;1.10;;
12848;SDS011;6493;50.928;7.172;2023-04-25T08:22:46;1.73;;;0.97;;
12848;SDS011;6493;50.928;7.172;2023-04-25T08:28:08;4.70;;;1.03;;
12848;SDS011;6493;50.928;7.172;2023-04-25T08:33:13;2.07;;;1.00;;
12848;SDS011;6493;50.928;7.172;2023-04-25T08:38:45;1.63;;;0.90;;
12848;SDS011;6493;50.928;7.172;2023-04-25T08:43:52;2.43;;;1.00;;
12848;SDS011;6493;50.928;7.172;2023-04-25T08:49:00;1.73;;;0.80;;
12848;SDS011;6493;50.928;7.172;2023-04-25T08:54:06;1.50;;;0.60;;
12848;SDS011;6493;50.928;7.172;2023-04-25T08:59:32;1.10;;;0.60;;
12848;SDS011;6493;50.928;7.172;2023-04-25T09:04:42;1.23;;;0.70;;
12848;SDS011;6493;50.928;7.172;2023-04-25T09:09:47;2.17;;;0.80;;
12848;SDS011;6493;50.928;7.172;2023-04-25T09:15:03;2.07;;;0.80;;
12848;SDS011;6493;50.928;7.172;2023-04-25T09:20:32;1.33;;;0.60;;
12848;SDS011;6493;50.928;7.172;2023-04-25T09:26:02;2.00;;;0.90;;
12848;SDS011;6493;50.928;7.172;2023-04-25T09:31:06;2.60;;;0.93;;
12848;SDS011;6493;50.928;7.172;2023-04-25T09:36:19;1.80;;;0.80;;
12848;SDS011;6493;50.928;7.172;2023-04-25T09:41:40;4.33;;;1.07;;
12848;SDS011;6493;50.928;7.172;2023-04-25T09:46:44;1.03;;;0.63;;
12848;SDS011;6493;50.928;7.172;2023-04-25T09:51:59;1.23;;;0.60;;
12848;SDS011;6493;50.928;7.172;2023-04-25T09:57:12;0.77;;;0.50;;
12848;SDS011;6493;50.928;7.172;2023-04-25T10:02:17;1.17;;;0.50;;
12848;SDS011;6493;50.928;7.172;2023-04-25T10:07:27;2.03;;;0.70;;
12848;SDS011;6493;50.928;7.172;2023-04-25T10:12:33;1.53;;;0.70;;
12848;SDS011;6493;50.928;7.172;2023-04-25T10:17:37;1.13;;;0.67;;
12848;SDS011;6493;50.928;7.172;2023-04-25T10:22:43;1.80;;;0.60;;
12848;SDS011;6493;50.928;7.172;2023-04-25T10:27:49;1.00;;;0.40;;
12848;SDS011;6493;50.928;7.172;2023-04-25T10:32:54;1.23;;;0.57;;
12848;SDS011;6493;50.928;7.172;2023-04-25T10:38:10;0.67;;;0.50;;
12848;SDS011;6493;50.928;7.172;2023-04-25T10:48:37;1.67;;;0.70;;
12848;SDS011;6493;50.928;7.172;2023-04-25T10:53:48;1.80;;;0.60;;
12848;SDS011;6493;50.928;7.172;2023-04-25T10:59:04;1.83;;;0.77;;
12848;SDS011;6493;50.928;7.172;2023-04-25T11:04:21;1.73;;;0.80;;
12848;SDS011;6493;50.928;7.172;2023-04-25T11:09:28;1.93;;;0.60;;
12848;SDS011;6493;50.928;7.172;2023-04-25T11:14:31;0.97;;;0.60;;
12848;SDS011;6493;50.928;7.172;2023-04-25T11:19:34;1.60;;;0.50;;
12848;SDS011;6493;50.928;7.172;2023-04-25T11:24:39;0.80;;;0.40;;
12848;SDS011;6493;50.928;7.172;2023-04-25T11:29:42;1.00;;;0.40;;
12848;SDS011;6493;50.928;7.172;2023-04-25T11:34:45;0.77;;;0.40;;
12848;SDS011;6493;50.928;7.172;2023-04-25T11:39:51;0.77;;;0.33;;
12848;SDS011;6493;50.928;7.172;2023-04-25T11:44:54;2.13;;;0.50;;
12848;SDS011;6493;50.928;7.172;2023-04-25T11:49:57;1.03;;;0.70;;
12848;SDS011;6493;50.928;7.172;2023-04-25T11:55:05;0.93;;;0.57;;
12848;SDS011;6493;50.928;7.172;2023-04-25T12:00:12;1.23;;;0.73;;
12848;SDS011;6493;50.928;7.172;2023-04-25T12:05:19;0.40;;;0.40;;
12848;SDS011;6493;50.928;7.172;2023-04-25T12:10:30;2.13;;;0.53;;
12848;SDS011;6493;50.928;7.172;2023-04-25T12:15:33;0.87;;;0.60;;
12848;SDS011;6493;50.928;7.172;2023-04-25T12:20:37;1.40;;;0.60;;
12848;SDS011;6493;50.928;7.172;2023-04-25T12:25:42;0.90;;;0.50;;
12848;SDS011;6493;50.928;7.172;2023-04-25T12:30:56;1.30;;;0.50;;
12848;SDS011;6493;50.928;7.172;2023-04-25T12:36:01;1.67;;;0.80;;
12848;SDS011;6493;50.928;7.172;2023-04-25T12:41:11;1.67;;;0.60;;
12848;SDS011;6493;50.928;7.172;2023-04-25T12:46:14;0.97;;;0.50;;
12848;SDS011;6493;50.928;7.172;2023-04-25T12:51:17;0.90;;;0.50;;
12848;SDS011;6493;50.928;7.172;2023-04-25T12:56:22;0.97;;;0.37;;
12848;SDS011;6493;50.928;7.172;2023-04-25T13:01:26;1.10;;;0.50;;
12848;SDS011;6493;50.928;7.172;2023-04-25T13:06:29;0.87;;;0.40;;
12848;SDS011;6493;50.928;7.172;2023-04-25T13:11:34;1.17;;;0.53;;
12848;SDS011;6493;50.928;7.172;2023-04-25T13:16:38;1.37;;;0.40;;
12848;SDS011;6493;50.928;7.172;2023-04-25T13:21:42;0.40;;;0.30;;
12848;SDS011;6493;50.928;7.172;2023-04-25T13:26:47;2.33;;;0.70;;
12848;SDS011;6493;50.928;7.172;2023-04-25T13:31:50;1.43;;;0.50;;
12848;SDS011;6493;50.928;7.172;2023-04-25T13:36:54;1.17;;;0.60;;
12848;SDS011;6493;50.928;7.172;2023-04-25T13:41:58;0.53;;;0.40;;
12848;SDS011;6493;50.928;7.172;2023-04-25T13:47:01;0.83;;;0.40;;
12848;SDS011;6493;50.928;7.172;2023-04-25T13:52:05;0.50;;;0.30;;
12848;SDS011;6493;50.928;7.172;2023-04-25T13:57:10;1.30;;;0.70;;
12848;SDS011;6493;50.928;7.172;2023-04-25T14:02:13;0.80;;;0.60;;
12848;SDS011;6493;50.928;7.172;2023-04-25T14:07:17;1.50;;;0.50;;
12848;SDS011;6493;50.928;7.172;2023-04-25T14:12:23;0.40;;;0.23;;
12848;SDS011;6493;50.928;7.172;2023-04-25T14:17:27;1.10;;;0.50;;
12848;SDS011;6493;50.928;7.172;2023-04-25T14:22:30;1.27;;;0.60;;
12848;SDS011;6493;50.928;7.172;2023-04-25T14:27:36;0.87;;;0.50;;
12848;SDS011;6493;50.928;7.172;2023-04-25T14:32:39;0.97;;;0.60;;
12848;SDS011;6493;50.928;7.172;2023-04-25T14:37:42;1.73;;;1.00;;
12848;SDS011;6493;50.928;7.172;2023-04-25T14:42:47;2.30;;;0.70;;
12848;SDS011;6493;50.928;7.172;2023-04-25T14:47:50;0.73;;;0.60;;
12848;SDS011;6493;50.928;7.172;2023-04-25T14:52:54;1.03;;;0.50;;
12848;SDS011;6493;50.928;7.172;2023-04-25T14:58:01;0.87;;;0.40;;
12848;SDS011;6493;50.928;7.172;2023-04-25T15:03:04;1.23;;;0.50;;
12848;SDS011;6493;50.928;7.172;2023-04-25T15:08:09;0.90;;;0.50;;
12848;SDS011;6493;50.928;7.172;2023-04-25T15:13:14;0.37;;;0.30;;
12848;SDS011;6493;50.928;7.172;2023-04-25T15:18:18;0.50;;;0.40;;
12848;SDS011;6493;50.928;7.172;2023-04-25T15:23:23;0.37;;;0.27;;
12848;SDS011;6493;50.928;7.172;2023-04-25T15:28:31;1.40;;;0.40;;
12848;SDS011;6493;50.928;7.172;2023-04-25T15:33:35;0.30;;;0.20;;
12848;SDS011;6493;50.928;7.172;2023-04-25T15:38:38;0.63;;;0.30;;
12848;SDS011;6493;50.928;7.172;2023-04-25T15:43:43;0.27;;;0.20;;
12848;SDS011;6493;50.928;7.172;2023-04-25T15:48:49;1.03;;;0.30;;
12848;SDS011;6493;50.928;7.172;2023-04-25T15:53:53;0.40;;;0.40;;
12848;SDS011;6493;50.928;7.172;2023-04-25T15:58:58;1.00;;;0.50;;
12848;SDS011;6493;50.928;7.172;2023-04-25T16:04:01;1.00;;;0.50;;
12848;SDS011;6493;50.928;7.172;2023-04-25T16:09:04;0.40;;;0.30;;
12848;SDS011;6493;50.928;7.172;2023-04-25T16:14:09;0.33;;;0.30;;
12848;SDS011;6493;50.928;7.172;2023-04-25T16:19:13;0.50;;;0.30;;
12848;SDS011;6493;50.928;7.172;2023-04-25T16:24:16;1.03;;;0.40;;
12848;SDS011;6493;50.928;7.172;2023-04-25T16:29:20;0.60;;;0.40;;
12848;SDS011;6493;50.928;7.172;2023-04-25T16:34:23;1.73;;;0.50;;
12848;SDS011;6493;50.928;7.172;2023-04-25T16:39:27;0.47;;;0.40;;
12848;SDS011;6493;50.928;7.172;2023-04-25T16:44:32;1.00;;;0.40;;
12848;SDS011;6493;50.928;7.172;2023-04-25T16:49:35;0.90;;;0.40;;
12848;SDS011;6493;50.928;7.172;2023-04-25T16:54:39;1.47;;;0.47;;
12848;SDS011;6493;50.928;7.172;2023-04-25T16:59:44;0.60;;;0.30;;
12848;SDS011;6493;50.928;7.172;2023-04-25T17:04:47;0.87;;;0.40;;
12848;SDS011;6493;50.928;7.172;2023-04-25T17:09:50;0.70;;;0.30;;
12848;SDS011;6493;50.928;7.172;2023-04-25T17:14:55;0.57;;;0.40;;
12848;SDS011;6493;50.928;7.172;2023-04-25T17:19:58;1.00;;;0.30;;
12848;SDS011;6493;50.928;7.172;2023-04-25T17:25:01;0.57;;;0.40;;
12848;SDS011;6493;50.928;7.172;2023-04-25T17:30:07;1.10;;;0.50;;
12848;SDS011;6493;50.928;7.172;2023-04-25T17:35:11;0.47;;;0.30;;
12848;SDS011;6493;50.928;7.172;2023-04-25T17:40:16;0.40;;;0.30;;
12848;SDS011;6493;50.928;7.172;2023-04-25T17:45:20;1.03;;;0.50;;
12848;SDS011;6493;50.928;7.172;2023-04-25T17:50:24;0.20;;;0.20;;
12848;SDS011;6493;50.928;7.172;2023-04-25T17:55:27;1.60;;;0.67;;
12848;SDS011;6493;50.928;7.172;2023-04-25T18:00:32;0.80;;;0.50;;
12848;SDS011;6493;50.928;7.172;2023-04-25T18:05:35;0.60;;;0.30;;
12848;SDS011;6493;50.928;7.172;2023-04-25T18:10:38;0.50;;;0.33;;
12848;SDS011;6493;50.928;7.172;2023-04-25T18:15:43;0.63;;;0.50;;
12848;SDS011;6493;50.928;7.172;2023-04-25T18:20:46;0.90;;;0.50;;
12848;SDS011;6493;50.928;7.172;2023-04-25T18:25:50;0.57;;;0.40;;
12848;SDS011;6493;50.928;7.172;2023-04-25T18:30:55;0.60;;;0.40;;
12848;SDS011;6493;50.928;7.172;2023-04-25T18:35:59;0.30;;;0.30;;
12848;SDS011;6493;50.928;7.172;2023-04-25T18:41:02;0.60;;;0.30;;
12848;SDS011;6493;50.928;7.172;2023-04-25T18:46:26;0.60;;;0.33;;
12848;SDS011;6493;50.928;7.172;2023-04-25T18:51:30;0.80;;;0.70;;
12848;SDS011;6493;50.928;7.172;2023-04-25T18:56:33;1.00;;;0.40;;
12848;SDS011;6493;50.928;7.172;2023-04-25T19:01:38;0.50;;;0.40;;
12848;SDS011;6493;50.928;7.172;2023-04-25T19:06:42;0.50;;;0.40;;
12848;SDS011;6493;50.928;7.172;2023-04-25T19:11:46;1.30;;;0.43;;
12848;SDS011;6493;50.928;7.172;2023-04-25T19:16:51;0.40;;;0.30;;
12848;SDS011;6493;50.928;7.172;2023-04-25T19:21:54;0.67;;;0.50;;
12848;SDS011;6493;50.928;7.172;2023-04-25T19:26:57;0.77;;;0.30;;
12848;SDS011;6493;50.928;7.172;2023-04-25T19:32:02;0.43;;;0.43;;
12848;SDS011;6493;50.928;7.172;2023-04-25T19:37:05;0.90;;;0.40;;
12848;SDS011;6493;50.928;7.172;2023-04-25T19:42:09;0.80;;;0.47;;
12848;SDS011;6493;50.928;7.172;2023-04-25T19:47:14;1.27;;;0.47;;
12848;SDS011;6493;50.928;7.172;2023-04-25T19:52:17;0.60;;;0.50;;
12848;SDS011;6493;50.928;7.172;2023-04-25T19:57:20;0.43;;;0.30;;
12848;SDS011;6493;50.928;7.172;2023-04-25T20:02:30;0.83;;;0.40;;
12848;SDS011;6493;50.928;7.172;2023-04-25T20:07:38;0.30;;;0.30;;
12848;SDS011;6493;50.928;7.172;2023-04-25T20:12:42;0.70;;;0.30;;
12848;SDS011;6493;50.928;7.172;2023-04-25T20:17:47;1.20;;;0.40;;
12848;SDS011;6493;50.928;7.172;2023-04-25T20:22:50;0.57;;;0.40;;
12848;SDS011;6493;50.928;7.172;2023-04-25T20:27:55;1.20;;;0.40;;
12848;SDS011;6493;50.928;7.172;2023-04-25T20:33:00;0.87;;;0.40;;
12848;SDS011;6493;50.928;7.172;2023-04-25T20:38:04;0.60;;;0.27;;
12848;SDS011;6493;50.928;7.172;2023-04-25T20:43:13;0.60;;;0.40;;
12848;SDS011;6493;50.928;7.172;2023-04-25T20:48:18;0.30;;;0.30;;
12848;SDS011;6493;50.928;7.172;2023-04-25T20:53:22;1.13;;;0.37;;
12848;SDS011;6493;50.928;7.172;2023-04-25T20:58:25;1.23;;;0.40;;
12848;SDS011;6493;50.928;7.172;2023-04-25T21:03:30;0.67;;;0.40;;
12848;SDS011;6493;50.928;7.172;2023-04-25T21:08:34;1.27;;;0.60;;
12848;SDS011;6493;50.928;7.172;2023-04-25T21:13:40;0.40;;;0.40;;
12848;SDS011;6493;50.928;7.172;2023-04-25T21:18:45;0.30;;;0.30;;
12848;SDS011;6493;50.928;7.172;2023-04-25T21:23:48;0.67;;;0.40;;
12848;SDS011;6493;50.928;7.172;2023-04-25T21:28:51;0.97;;;0.50;;
12848;SDS011;6493;50.928;7.172;2023-04-25T21:33:56;0.40;;;0.40;;
12848;SDS011;6493;50.928;7.172;2023-04-25T21:39:00;0.70;;;0.33;;
12848;SDS011;6493;50.928;7.172;2023-04-25T21:44:03;0.50;;;0.50;;
12848;SDS011;6493;50.928;7.172;2023-04-25T21:49:08;0.90;;;0.50;;
12848;SDS011;6493;50.928;7.172;2023-04-25T21:54:11;1.17;;;0.40;;
12848;SDS011;6493;50.928;7.172;2023-04-25T21:59:14;1.00;;;0.60;;
12848;SDS011;6493;50.928;7.172;2023-04-25T22:04:19;1.27;;;0.50;;
12848;SDS011;6493;50.928;7.172;2023-04-25T22:09:25;0.63;;;0.40;;
12848;SDS011;6493;50.928;7.172;2023-04-25T22:14:29;1.03;;;0.50;;
12848;SDS011;6493;50.928;7.172;2023-04-25T22:19:34;0.60;;;0.40;;
12848;SDS011;6493;50.928;7.172;2023-04-25T22:24:40;0.57;;;0.33;;
12848;SDS011;6493;50.928;7.172;2023-04-25T22:29:44;0.80;;;0.47;;
12848;SDS011;6493;50.928;7.172;2023-04-25T22:34:52;0.83;;;0.40;;
12848;SDS011;6493;50.928;7.172;2023-04-25T22:39:55;1.43;;;0.60;;
12848;SDS011;6493;50.928;7.172;2023-04-25T22:45:01;0.60;;;0.50;;
12848;SDS011;6493;50.928;7.172;2023-04-25T22:50:10;0.60;;;0.40;;
12848;SDS011;6493;50.928;7.172;2023-04-25T22:55:17;0.40;;;0.40;;
12848;SDS011;6493;50.928;7.172;2023-04-25T23:00:23;1.50;;;0.50;;
12848;SDS011;6493;50.928;7.172;2023-04-25T23:05:32;0.53;;;0.40;;
12848;SDS011;6493;50.928;7.172;2023-04-25T23:10:35;0.63;;;0.40;;
12848;SDS011;6493;50.928;7.172;2023-04-25T23:15:39;0.40;;;0.40;;
12848;SDS011;6493;50.928;7.172;2023-04-25T23:20:43;0.97;;;0.40;;
12848;SDS011;6493;50.928;7.172;2023-04-25T23:25:47;0.47;;;0.40;;
12848;SDS011;6493;50.928;7.172;2023-04-25T23:30:50;0.50;;;0.40;;
12848;SDS011;6493;50.928;7.172;2023-04-25T23:35:55;1.40;;;0.40;;
12848;SDS011;6493;50.928;7.172;2023-04-25T23:40:58;0.97;;;0.47;;
12848;SDS011;6493;50.928;7.172;2023-04-25T23:46:01;1.47;;;0.60;;
12848;SDS011;6493;50.928;7.172;2023-04-25T23:51:06;0.73;;;0.30;;
12848;SDS011;6493;50.928;7.172;2023-04-25T23:56:09;0.40;;;0.30;;
